createdAt,value
2018-12-18T00:02:01.683Z,23.07
2018-12-18T00:04:30.308Z,22.93
2018-12-18T00:06:58.869Z,23.93
2018-12-18T00:09:27.405Z,24.27
2018-12-18T00:11:59.288Z,24.47
2018-12-18T00:14:26.505Z,25.00
2018-12-18T00:16:55.032Z,23.97
2018-12-18T00:19:23.584Z,24.80
2018-12-18T00:21:52.234Z,25.03
2018-12-18T00:24:21.363Z,24.17
2018-12-18T00:26:49.910Z,24.60
2018-12-18T00:29:18.467Z,24.60
2018-12-18T00:31:47.132Z,26.50
2018-12-18T00:34:15.655Z,25.53
2018-12-18T00:36:44.169Z,26.20
2018-12-18T00:39:14.633Z,26.37
2018-12-18T00:41:43.760Z,26.30
2018-12-18T00:44:12.392Z,25.57
2018-12-18T00:46:40.959Z,26.47
2018-12-18T00:49:10.784Z,27.03
2018-12-18T00:51:40.024Z,26.90
2018-12-18T00:54:08.585Z,28.13
2018-12-18T00:56:37.146Z,28.33
2018-12-18T00:59:05.680Z,27.70
2018-12-18T01:01:34.238Z,28.43
2018-12-18T01:04:02.770Z,28.40
2018-12-18T01:06:32.233Z,29.33
2018-12-18T01:09:00.954Z,27.83
2018-12-18T01:11:29.477Z,29.70
2018-12-18T01:13:58.039Z,27.87
2018-12-18T01:16:26.578Z,28.77
2018-12-18T01:18:55.141Z,29.30
2018-12-18T01:21:24.111Z,28.60
2018-12-18T01:23:52.710Z,28.97
2018-12-18T01:26:27.662Z,29.70
2018-12-18T01:28:56.167Z,30.70
2018-12-18T01:31:24.696Z,28.50
2018-12-18T01:33:59.154Z,29.47
2018-12-18T01:36:23.818Z,27.90
2018-12-18T01:38:52.326Z,29.37
2018-12-18T01:41:21.029Z,29.70
2018-12-18T01:43:49.547Z,29.47
2018-12-18T01:46:18.081Z,30.97
2018-12-18T01:48:46.813Z,30.67
2018-12-18T01:51:15.499Z,31.03
2018-12-18T01:53:44.167Z,30.23
2018-12-18T01:56:12.745Z,32.33
2018-12-18T01:58:41.269Z,30.43
2018-12-18T02:01:09.923Z,32.90
2018-12-18T02:03:38.422Z,33.93
2018-12-18T02:06:07.213Z,32.77
2018-12-18T02:08:35.744Z,33.47
2018-12-18T02:11:04.398Z,32.67
2018-12-18T02:13:33.048Z,32.33
2018-12-18T02:16:01.566Z,33.57
2018-12-18T02:18:30.291Z,33.40
2018-12-18T02:20:58.914Z,33.80
2018-12-18T02:23:27.503Z,33.20
2018-12-18T02:25:56.016Z,32.93
2018-12-18T02:28:24.547Z,31.23
2018-12-18T02:30:53.087Z,31.40
2018-12-18T02:33:22.076Z,32.07
2018-12-18T02:35:50.610Z,31.27
2018-12-18T02:38:19.187Z,30.17
2018-12-18T02:40:47.725Z,28.30
2018-12-18T02:43:16.459Z,29.40
2018-12-18T02:45:45.025Z,28.97
2018-12-18T02:48:13.529Z,30.77
2018-12-18T02:50:42.040Z,28.67
2018-12-18T02:53:10.884Z,31.20
2018-12-18T02:55:39.452Z,31.53
2018-12-18T02:58:07.971Z,31.73
2018-12-18T03:00:36.515Z,30.87
2018-12-18T03:03:05.066Z,32.53
2018-12-18T03:05:34.259Z,32.43
2018-12-18T03:08:02.805Z,33.50
2018-12-18T03:10:31.475Z,33.80
2018-12-18T03:12:59.998Z,33.63
2018-12-18T03:15:28.515Z,32.40
2018-12-18T03:17:57.069Z,33.23
2018-12-18T03:20:25.596Z,33.53
2018-12-18T03:22:54.158Z,33.17
2018-12-18T03:25:22.809Z,31.30
2018-12-18T03:27:51.338Z,32.70
2018-12-18T03:30:19.858Z,30.70
2018-12-18T03:32:51.965Z,32.13
2018-12-18T03:35:21.319Z,32.87
2018-12-18T03:37:49.868Z,33.30
2018-12-18T03:40:18.474Z,34.50
2018-12-18T03:42:47.138Z,33.27
2018-12-18T03:45:15.659Z,32.83
2018-12-18T03:47:44.198Z,34.07
2018-12-18T03:50:12.840Z,32.47
2018-12-18T03:52:41.384Z,32.90
2018-12-18T03:55:09.900Z,31.67
2018-12-18T03:57:38.621Z,32.23
2018-12-18T04:00:09.703Z,30.10
2018-12-18T04:02:38.241Z,29.60
2018-12-18T04:05:07.040Z,29.93
2018-12-18T04:07:36.694Z,30.07
2018-12-18T04:10:07.158Z,28.37
2018-12-18T04:12:35.818Z,27.23
2018-12-18T04:15:05.311Z,27.23
2018-12-18T04:17:33.844Z,27.07
2018-12-18T04:20:02.560Z,26.77
2018-12-18T04:22:31.115Z,27.70
2018-12-18T04:24:59.802Z,27.03
2018-12-18T04:27:28.359Z,27.03
2018-12-18T04:29:56.913Z,27.50
2018-12-18T04:32:25.539Z,28.97
2018-12-18T04:34:54.041Z,27.37
2018-12-18T04:37:22.598Z,25.67
2018-12-18T04:39:51.110Z,27.67
2018-12-18T04:42:19.649Z,25.33
2018-12-18T04:44:48.190Z,25.67
2018-12-18T04:47:16.727Z,26.60
2018-12-18T04:49:45.246Z,26.97
2018-12-18T04:52:13.858Z,26.20
2018-12-18T04:54:42.435Z,28.47
2018-12-18T04:57:10.967Z,29.37
2018-12-18T04:59:39.503Z,28.87
2018-12-18T05:02:08.182Z,27.80
2018-12-18T05:04:36.719Z,28.70
2018-12-18T05:07:05.232Z,27.67
2018-12-18T05:09:33.782Z,29.57
2018-12-18T05:12:02.330Z,27.90
2018-12-18T05:14:30.906Z,29.17
2018-12-18T05:16:59.786Z,29.20
2018-12-18T05:19:28.781Z,28.10
2018-12-18T05:21:57.346Z,26.33
2018-12-18T05:24:25.955Z,26.47
2018-12-18T05:26:54.474Z,25.50
2018-12-18T05:29:23.000Z,25.50
2018-12-18T05:31:51.580Z,25.53
2018-12-18T05:34:20.161Z,24.43
2018-12-18T05:36:48.693Z,25.57
2018-12-18T05:39:17.261Z,26.67
2018-12-18T05:41:46.177Z,26.90
2018-12-18T05:44:14.859Z,26.77
2018-12-18T05:46:43.421Z,27.33
2018-12-18T05:49:12.061Z,26.37
2018-12-18T05:51:41.158Z,27.67
2018-12-18T05:54:09.688Z,27.23
2018-12-18T05:56:38.231Z,27.87
2018-12-18T05:59:06.911Z,26.27
2018-12-18T06:01:35.466Z,28.97
2018-12-18T06:04:04.368Z,27.20
2018-12-18T06:06:32.916Z,27.97
2018-12-18T06:09:01.467Z,28.77
2018-12-18T06:11:30.135Z,28.47
2018-12-18T06:13:58.712Z,29.80
2018-12-18T06:16:27.295Z,28.57
2018-12-18T06:18:55.801Z,30.27
2018-12-18T06:21:24.437Z,29.70
2018-12-18T06:23:53.028Z,30.03
2018-12-18T06:26:21.598Z,30.27
2018-12-18T06:28:50.161Z,30.23
2018-12-18T06:31:18.725Z,29.33
2018-12-18T06:33:47.262Z,29.37
2018-12-18T06:36:16.369Z,28.60
2018-12-18T06:38:45.834Z,28.27
2018-12-18T06:41:14.394Z,27.27
2018-12-18T06:43:42.942Z,26.33
2018-12-18T06:46:11.502Z,27.30
2018-12-18T06:48:40.051Z,26.43
2018-12-18T06:51:08.668Z,28.17
2018-12-18T06:53:37.229Z,28.57
2018-12-18T06:56:12.303Z,28.37
2018-12-18T06:58:40.863Z,28.10
2018-12-18T07:01:09.361Z,28.00
2018-12-18T07:03:37.865Z,29.00
2018-12-18T07:06:06.379Z,28.53
2018-12-18T07:08:34.925Z,29.10
2018-12-18T07:11:04.471Z,26.50
2018-12-18T07:13:33.204Z,26.97
2018-12-18T07:16:01.770Z,29.33
2018-12-18T07:18:30.311Z,28.73
2018-12-18T07:20:58.847Z,27.87
2018-12-18T07:23:27.365Z,28.80
2018-12-18T07:25:55.896Z,28.77
2018-12-18T07:28:24.413Z,29.73
2018-12-18T07:30:53.118Z,29.40
2018-12-18T07:33:21.658Z,30.57
2018-12-18T07:35:50.261Z,28.17
2018-12-18T07:38:18.775Z,29.17
2018-12-18T07:40:47.516Z,28.97
2018-12-18T07:43:16.999Z,30.13
2018-12-18T07:45:45.623Z,28.57
2018-12-18T07:48:14.163Z,28.63
2018-12-18T07:50:42.676Z,29.40
2018-12-18T07:53:12.303Z,27.97
2018-12-18T07:55:40.818Z,28.80
2018-12-18T07:58:09.362Z,29.23
2018-12-18T08:00:37.935Z,28.63
2018-12-18T08:03:06.882Z,27.80
2018-12-18T08:05:35.466Z,27.40
2018-12-18T08:08:04.052Z,27.97
2018-12-18T08:10:32.672Z,28.77
2018-12-18T08:13:01.468Z,27.40
2018-12-18T08:15:30.253Z,25.63
2018-12-18T08:17:58.778Z,26.93
2018-12-18T08:20:27.309Z,27.27
2018-12-18T08:22:55.899Z,27.43
2018-12-18T08:25:25.293Z,27.17
2018-12-18T08:27:53.805Z,26.83
2018-12-18T08:30:22.334Z,26.53
2018-12-18T08:32:51.980Z,26.93
2018-12-18T08:35:20.543Z,26.47
2018-12-18T08:37:49.054Z,25.73
2018-12-18T08:40:17.607Z,25.37
2018-12-18T08:42:46.113Z,25.20
2018-12-18T08:45:14.671Z,23.93
2018-12-18T08:47:43.229Z,22.27
2018-12-18T08:50:11.729Z,23.13
2018-12-18T08:52:40.287Z,23.43
2018-12-18T08:55:08.841Z,21.70
2018-12-18T08:57:37.363Z,23.07
2018-12-18T09:00:07.667Z,22.70
2018-12-18T09:02:36.199Z,23.53
2018-12-18T09:05:05.590Z,23.90
2018-12-18T09:07:34.132Z,23.57
2018-12-18T09:10:02.730Z,22.97
2018-12-18T09:12:31.322Z,22.43
2018-12-18T09:15:02.048Z,23.60
2018-12-18T09:17:35.855Z,22.17
2018-12-18T09:20:04.725Z,24.20
2018-12-18T09:22:33.352Z,23.13
2018-12-18T09:25:02.043Z,22.90
2018-12-18T09:27:30.622Z,22.20
2018-12-18T09:29:59.230Z,22.83
2018-12-18T09:32:27.912Z,22.47
2018-12-18T09:34:56.677Z,21.73
2018-12-18T09:37:25.404Z,23.37
2018-12-18T09:39:53.996Z,21.43
2018-12-18T09:43:30.215Z,22.13
2018-12-18T09:45:58.811Z,19.73
2018-12-18T09:48:27.345Z,20.33
2018-12-18T09:50:55.930Z,20.43
2018-12-18T09:53:24.483Z,19.40
2018-12-18T09:55:53.008Z,18.00
2018-12-18T09:58:22.151Z,18.60
2018-12-18T10:00:50.822Z,16.33
2018-12-18T10:03:19.349Z,16.10
2018-12-18T10:05:48.036Z,15.87
2018-12-18T10:08:16.749Z,15.03
2018-12-18T10:10:51.751Z,15.07
2018-12-18T10:13:21.046Z,13.70
2018-12-18T10:15:49.658Z,14.83
2018-12-18T10:18:18.162Z,15.33
2018-12-18T10:20:46.725Z,14.40
2018-12-18T10:23:15.384Z,14.00
2018-12-18T10:25:43.914Z,13.80
2018-12-18T10:28:12.956Z,13.97
2018-12-18T10:30:41.534Z,14.50
2018-12-18T10:33:10.905Z,13.80
2018-12-18T10:35:39.449Z,14.30
2018-12-18T10:38:07.961Z,15.07
2018-12-18T10:40:36.822Z,15.57
2018-12-18T10:43:05.417Z,14.90
2018-12-18T10:45:35.132Z,16.20
2018-12-18T10:48:04.185Z,16.90
2018-12-18T10:50:32.733Z,17.13
2018-12-18T10:53:01.376Z,17.47
2018-12-18T10:55:29.880Z,18.07
2018-12-18T10:57:58.400Z,18.77
2018-12-18T11:00:32.314Z,20.13
2018-12-18T11:03:00.957Z,18.80
2018-12-18T11:05:30.541Z,20.20
2018-12-18T11:07:59.446Z,20.73
2018-12-18T11:10:28.111Z,21.20
2018-12-18T11:13:02.222Z,20.93
2018-12-18T11:15:30.753Z,22.60
2018-12-18T11:17:59.617Z,21.20
2018-12-18T11:20:28.295Z,22.07
2018-12-18T11:22:56.803Z,22.73
2018-12-18T11:25:25.398Z,22.03
2018-12-18T11:27:53.925Z,21.60
2018-12-18T11:30:22.644Z,22.20
2018-12-18T11:32:51.219Z,22.03
2018-12-18T11:35:19.815Z,22.77
2018-12-18T11:37:48.355Z,21.33
2018-12-18T11:40:17.047Z,21.07
2018-12-18T11:42:45.593Z,19.93
2018-12-18T11:45:14.230Z,20.73
2018-12-18T11:47:42.780Z,20.93
2018-12-18T11:50:11.416Z,19.50
2018-12-18T11:52:40.248Z,16.63
2018-12-18T11:55:08.981Z,17.87
2018-12-18T11:57:37.560Z,18.53
2018-12-18T12:00:09.746Z,18.67
2018-12-18T12:02:42.794Z,16.87
2018-12-18T12:05:08.932Z,17.07
2018-12-18T12:07:38.202Z,16.33
2018-12-18T12:10:07.427Z,16.97
2018-12-18T12:12:36.211Z,16.87
2018-12-18T12:15:05.542Z,16.93
2018-12-18T12:17:34.393Z,16.00
2018-12-18T12:20:02.998Z,16.50
2018-12-18T12:22:31.533Z,16.60
2018-12-18T12:25:00.103Z,17.00
2018-12-18T12:27:36.499Z,15.87
2018-12-18T12:30:06.521Z,16.37
2018-12-18T12:32:35.077Z,15.53
2018-12-18T12:35:03.751Z,15.63
2018-12-18T12:37:32.356Z,15.70
2018-12-18T12:40:00.917Z,14.83
2018-12-18T12:42:29.441Z,16.33
2018-12-18T12:44:58.018Z,15.90
2018-12-18T12:47:26.605Z,16.00
2018-12-18T12:49:55.217Z,15.37
2018-12-18T12:52:23.952Z,14.60
2018-12-18T12:54:52.616Z,16.33
2018-12-18T12:57:21.183Z,16.03
2018-12-18T12:59:49.700Z,15.10
2018-12-18T13:02:18.381Z,15.73
2018-12-18T13:04:46.920Z,15.23
2018-12-18T13:07:15.461Z,14.30
2018-12-18T13:09:44.030Z,14.97
2018-12-18T13:12:12.761Z,13.73
2018-12-18T13:14:42.187Z,14.30
2018-12-18T13:17:10.851Z,12.67
2018-12-18T13:19:39.711Z,13.03
2018-12-18T13:22:08.251Z,13.10
2018-12-18T13:24:36.857Z,12.87
2018-12-18T13:27:05.424Z,13.40
2018-12-18T13:29:34.272Z,11.10
2018-12-18T13:32:03.256Z,11.07
2018-12-18T13:34:33.775Z,12.10
2018-12-18T13:37:02.315Z,11.20
2018-12-18T13:39:30.912Z,10.60
2018-12-18T13:41:59.463Z,10.07
2018-12-18T13:44:28.778Z,10.90
2018-12-18T13:46:57.490Z,12.20
2018-12-18T13:49:26.216Z,9.93
2018-12-18T13:51:54.903Z,8.87
2018-12-18T13:54:23.463Z,9.70
2018-12-18T13:56:51.962Z,8.67
2018-12-18T13:59:20.517Z,8.37
2018-12-18T14:01:49.026Z,9.60
2018-12-18T14:04:17.683Z,8.53
2018-12-18T14:06:49.687Z,7.80
2018-12-18T14:09:16.777Z,7.40
2018-12-18T14:11:45.391Z,7.13
2018-12-18T14:14:13.996Z,6.77
2018-12-18T14:16:43.266Z,7.80
2018-12-18T14:19:11.785Z,6.60
2018-12-18T14:21:40.679Z,6.83
